Time;durP1;ratioP1;P1;durP2;ratioP2;P2;SDS_P1;SDS_P2;PMS_P1;PMS_P2;Temp;Humidity;BMP_temperature;BMP_pressure;BME280_temperature;BME280_humidity;BME280_pressure;Samples;Min_cycle;Max_cycle;Signal;HPM_P1;HPM_P2
2021/07/20 00:00:18;;;;;;;29.02;8.13;;;;;;;20.74;92.82;100137.00;1766715;80;21002;-38
2021/07/20 00:02:49;;;;;;;22.55;7.37;;;;;;;20.71;92.91;100140.30;1767322;80;21583;-39
2021/07/20 00:05:21;;;;;;;21.12;8.00;;;;;;;20.67;92.89;100142.27;1730817;81;21515;-39
2021/07/20 00:07:45;;;;;;;21.70;7.58;;;;;;;20.64;93.00;100136.77;1761626;80;21583;-39
2021/07/20 00:10:15;;;;;;;24.35;8.25;;;;;;;20.62;93.06;100137.34;1778937;80;21018;-39
2021/07/20 00:12:42;;;;;;;25.85;7.80;;;;;;;20.59;93.15;100138.86;1769502;80;21795;-39
2021/07/20 00:15:11;;;;;;;20.17;7.30;;;;;;;20.55;93.29;100143.92;1769649;80;22303;-39
2021/07/20 00:17:42;;;;;;;18.57;6.87;;;;;;;20.53;93.47;100158.95;1761135;80;20967;-39
2021/07/20 00:20:08;;;;;;;25.65;8.43;;;;;;;20.50;93.74;100151.27;1770488;80;21030;-40
2021/07/20 00:22:34;;;;;;;24.12;7.92;;;;;;;20.46;93.88;100154.59;1766190;80;21612;-39
2021/07/20 00:25:02;;;;;;;30.97;7.40;;;;;;;20.45;94.04;100152.05;1731241;81;22491;-39
2021/07/20 00:27:28;;;;;;;28.85;7.75;;;;;;;20.41;94.23;100143.98;1671844;84;20951;-40
2021/07/20 00:29:55;;;;;;;25.10;8.03;;;;;;;20.39;94.32;100143.62;1683251;83;21000;-39
2021/07/20 00:32:22;;;;;;;26.42;8.70;;;;;;;20.38;94.45;100140.62;1679221;84;21553;-39
2021/07/20 00:34:49;;;;;;;33.88;7.85;;;;;;;20.37;94.62;100141.56;1676189;84;21489;-39
2021/07/20 00:37:15;;;;;;;31.15;7.55;;;;;;;20.36;94.73;100141.20;1699294;83;22575;-40
2021/07/20 00:39:42;;;;;;;21.30;8.08;;;;;;;20.35;94.81;100135.56;1696660;82;20972;-40
2021/07/20 00:42:08;;;;;;;22.22;8.43;;;;;;;20.34;94.70;100133.02;1675408;84;21091;-39
2021/07/20 00:44:36;;;;;;;24.98;7.75;;;;;;;20.31;94.68;100129.28;1669811;85;21534;-39
2021/07/20 00:47:04;;;;;;;22.45;7.83;;;;;;;20.28;94.81;100135.57;1696436;83;21047;-39
2021/07/20 00:49:31;;;;;;;21.35;8.13;;;;;;;20.27;94.96;100135.20;1701296;83;21073;-40
2021/07/20 00:51:58;;;;;;;24.95;7.58;;;;;;;20.25;95.02;100134.45;1692490;83;21015;-39
2021/07/20 00:54:24;;;;;;;21.30;7.80;;;;;;;20.23;95.04;100124.06;1690872;82;21163;-39
2021/07/20 00:56:52;;;;;;;17.00;7.67;;;;;;;20.21;95.16;100123.78;1715868;83;21091;-40
2021/07/20 00:59:19;;;;;;;19.00;7.87;;;;;;;20.20;95.22;100127.34;1697551;83;20968;-39
2021/07/20 01:01:47;;;;;;;23.95;8.15;;;;;;;20.16;95.25;100117.98;1717403;83;21144;-39
2021/07/20 01:04:14;;;;;;;27.02;7.55;;;;;;;20.12;95.24;100117.33;1697619;83;22083;-39
2021/07/20 01:06:40;;;;;;;29.12;8.38;;;;;;;20.08;95.38;100130.28;1717748;83;20984;-39
2021/07/20 01:09:08;;;;;;;31.27;8.08;;;;;;;20.05;95.60;100131.31;1707916;83;20976;-39
2021/07/20 01:11:36;;;;;;;25.32;8.28;;;;;;;20.04;95.87;100136.19;1717294;82;21589;-39
2021/07/20 01:14:04;;;;;;;29.50;8.28;;;;;;;20.04;96.09;100124.86;1670730;83;21744;-40
2021/07/20 01:16:34;;;;;;;18.60;7.58;;;;;;;20.02;96.20;100117.06;1717503;82;21522;-39
2021/07/20 01:19:04;;;;;;;23.05;8.20;;;;;;;20.03;96.26;100107.41;1711564;83;20948;-40
2021/07/20 01:21:35;;;;;;;26.97;8.18;;;;;;;20.01;96.18;100107.50;1657610;83;21015;-40
2021/07/20 01:24:07;;;;;;;24.35;7.90;;;;;;;19.99;96.10;100108.07;1711807;83;21317;-40
2021/07/20 01:26:36;;;;;;;21.90;8.35;;;;;;;19.98;96.14;100105.07;1714837;83;21080;-40
2021/07/20 01:29:04;;;;;;;19.75;7.55;;;;;;;19.98;96.07;100109.02;1711450;83;20984;-39
2021/07/20 01:31:36;;;;;;;33.55;8.25;;;;;;;19.96;96.07;100112.21;1673708;83;21584;-40
2021/07/20 01:34:06;;;;;;;22.58;7.92;;;;;;;19.97;96.15;100112.58;1694476;83;21028;-39
2021/07/20 01:36:32;;;;;;;20.02;7.20;;;;;;;19.95;96.09;100109.21;1697811;83;20953;-40
2021/07/20 01:39:01;;;;;;;20.08;7.53;;;;;;;19.94;96.01;100119.34;1699764;83;21129;-40
2021/07/20 01:41:31;;;;;;;24.15;8.00;;;;;;;19.91;96.07;100121.68;1716354;82;21011;-40
2021/07/20 01:44:03;;;;;;;34.13;7.60;;;;;;;19.89;96.23;100123.53;1718200;80;21012;-39
2021/07/20 01:46:31;;;;;;;22.52;6.55;;;;;;;19.90;96.47;100130.47;1731891;80;21061;-39
2021/07/20 01:49:04;;;;;;;30.43;8.00;;;;;;;19.90;96.45;100130.95;1704596;82;21013;-39
2021/07/20 01:51:34;;;;;;;32.42;7.35;;;;;;;19.88;96.47;100131.03;1715875;82;21111;-39
2021/07/20 01:54:02;;;;;;;28.38;7.15;;;;;;;19.87;96.39;100128.04;1714058;82;21542;-39
2021/07/20 01:56:30;;;;;;;26.20;7.85;;;;;;;19.86;96.35;100134.72;1701153;81;20940;-39
2021/07/20 01:58:57;;;;;;;25.55;7.95;;;;;;;19.85;96.35;100135.66;1718459;82;20991;-39
2021/07/20 02:02:08;;;;;;;30.30;6.78;;;;;;;19.85;96.52;100136.97;1719761;82;21130;-40
2021/07/20 02:04:48;;;;;;;32.98;8.40;;;;;;;19.83;96.58;100133.12;1730405;80;21103;-39
2021/07/20 02:09:56;;;;;;;20.57;6.97;;;;;;;19.80;96.74;100136.77;1724547;82;20949;-40
2021/07/20 02:12:38;;;;;;;21.55;7.50;;;;;;;19.82;96.70;100140.14;1717388;82;20980;-40
2021/07/20 02:15:18;;;;;;;22.37;7.40;;;;;;;19.82;96.71;100132.26;1656521;84;21153;-39
2021/07/20 02:17:47;;;;;;;16.17;7.37;;;;;;;19.85;96.62;100133.86;1637861;86;21165;-39
2021/07/20 02:20:21;;;;;;;21.70;7.60;;;;;;;19.86;96.54;100130.30;1697135;82;20960;-39
2021/07/20 02:22:54;;;;;;;20.88;6.80;;;;;;;19.86;96.44;100128.16;1710765;82;21050;-40
2021/07/20 02:25:24;;;;;;;18.75;8.10;;;;;;;19.87;96.39;100127.21;1736779;82;21007;-39
2021/07/20 02:27:51;;;;;;;25.32;7.28;;;;;;;19.88;96.31;100126.27;1704529;80;21056;-40
2021/07/20 02:30:23;;;;;;;18.12;7.37;;;;;;;19.88;96.26;100125.78;1732680;80;21186;-39
2021/07/20 02:32:50;;;;;;;23.62;6.85;;;;;;;19.90;96.22;100127.02;1699397;81;21094;-40
2021/07/20 02:35:23;;;;;;;20.68;6.75;;;;;;;19.90;96.07;100125.22;1737534;82;21549;-40
2021/07/20 02:37:51;;;;;;;14.65;6.67;;;;;;;19.91;96.02;100133.50;1721308;82;21071;-39
2021/07/20 02:40:18;;;;;;;26.65;7.47;;;;;;;19.92;95.99;100129.94;1738600;82;21255;-39
2021/07/20 02:42:45;;;;;;;21.20;6.85;;;;;;;19.94;95.87;100139.05;1722156;82;21142;-40
2021/07/20 02:45:13;;;;;;;17.25;6.60;;;;;;;19.98;95.69;100142.33;1717965;80;20997;-39
2021/07/20 02:47:41;;;;;;;22.07;6.83;;;;;;;19.97;95.46;100141.47;1698116;81;20936;-39
2021/07/20 02:50:11;;;;;;;19.23;6.70;;;;;;;19.97;95.36;100146.72;1711929;82;20934;-40
2021/07/20 02:52:41;;;;;;;19.32;7.47;;;;;;;20.00;95.29;100146.53;1712930;82;20998;-39
2021/07/20 02:55:09;;;;;;;18.80;7.53;;;;;;;20.01;95.19;100146.90;1719753;80;21052;-40
2021/07/20 02:57:37;;;;;;;19.90;7.30;;;;;;;20.01;95.11;100145.59;1710463;81;20988;-40
2021/07/20 03:00:07;;;;;;;19.85;7.22;;;;;;;20.04;94.98;100143.25;1717329;82;21008;-40
2021/07/20 03:02:54;;;;;;;24.55;6.67;;;;;;;20.06;94.94;100147.45;1700422;81;21521;-39
2021/07/20 03:05:22;;;;;;;28.42;6.90;;;;;;;20.12;94.85;100147.53;1719470;82;21521;-39
2021/07/20 03:07:54;;;;;;;20.10;6.87;;;;;;;20.19;94.89;100144.88;1732673;82;20995;-39
2021/07/20 03:10:25;;;;;;;15.90;7.10;;;;;;;20.28;94.84;100142.14;1729018;82;21059;-40
2021/07/20 05:05:38;;;;;;;11.35;5.95;;;;;;;25.65;67.47;100166.55;1645559;86;20962;-41
2021/07/20 05:08:16;;;;;;;13.10;6.28;;;;;;;25.74;67.24;100169.70;1666825;85;21132;-40
2021/07/20 05:10:47;;;;;;;15.68;6.47;;;;;;;25.94;67.23;100166.62;1673953;84;20949;-42
2021/07/20 05:13:17;;;;;;;14.68;6.05;;;;;;;26.18;65.49;100165.95;1654381;84;20973;-41
2021/07/20 05:15:47;;;;;;;35.43;6.92;;;;;;;26.31;65.55;100167.84;1646926;85;21554;-40
2021/07/20 05:18:13;;;;;;;16.23;6.05;;;;;;;26.36;65.34;100171.41;1661881;84;21559;-40
2021/07/20 05:20:42;;;;;;;13.05;5.90;;;;;;;26.54;64.95;100173.73;1647682;86;21001;-42
2021/07/20 05:23:15;;;;;;;11.28;5.40;;;;;;;26.58;64.61;100178.25;1661388;84;20973;-41
2021/07/20 05:25:44;;;;;;;12.93;5.20;;;;;;;26.54;65.13;100177.72;1659408;84;21008;-40
2021/07/20 05:28:11;;;;;;;15.85;5.78;;;;;;;26.73;63.85;100179.17;1655297;84;21044;-41
2021/07/20 05:30:41;;;;;;;7.53;5.35;;;;;;;26.64;63.97;100184.83;1631217;85;21522;-41
2021/07/20 05:33:09;;;;;;;14.60;5.22;;;;;;;26.76;63.31;100178.89;1670853;84;21578;-42
2021/07/20 05:35:42;;;;;;;13.03;5.53;;;;;;;26.85;63.52;100179.39;1692496;84;21024;-40
2021/07/20 05:38:09;;;;;;;19.12;5.87;;;;;;;26.90;63.33;100183.78;1694996;84;21029;-43
2021/07/20 05:40:39;;;;;;;16.90;5.62;;;;;;;26.96;63.11;100184.56;1648888;84;20918;-42
2021/07/20 06:59:28;;;;;;;16.32;5.50;;;;;;;29.42;54.08;100192.89;1641932;85;22173;-41
2021/07/20 07:01:57;;;;;;;15.75;5.60;;;;;;;29.67;51.95;100191.69;1639814;87;21587;-41
2021/07/20 07:04:41;;;;;;;15.35;5.28;;;;;;;29.86;50.94;100192.43;1638037;87;21037;-41
2021/07/20 07:07:07;;;;;;;18.37;5.05;;;;;;;29.87;50.86;100186.09;1635032;87;20972;-41
2021/07/20 07:09:34;;;;;;;21.10;5.42;;;;;;;29.97;49.63;100180.15;1641219;85;21234;-41
2021/07/20 07:12:02;;;;;;;10.23;4.85;;;;;;;30.08;49.43;100182.53;1624460;85;20980;-40
2021/07/20 07:14:30;;;;;;;21.48;5.05;;;;;;;30.14;49.71;100179.72;1648109;85;21000;-41
2021/07/20 07:16:57;;;;;;;11.45;4.47;;;;;;;30.20;47.62;100171.05;1657466;85;21032;-42
2021/07/20 07:19:23;;;;;;;13.83;4.70;;;;;;;30.32;47.22;100167.57;1667655;85;21034;-41
2021/07/20 07:21:51;;;;;;;17.57;4.22;;;;;;;30.38;46.27;100164.75;1646357;87;21156;-41
2021/07/20 07:24:19;;;;;;;11.50;4.53;;;;;;;30.47;46.27;100162.92;1650891;85;21080;-40
2021/07/20 07:26:47;;;;;;;9.83;4.62;;;;;;;30.58;47.25;100161.25;1645283;85;20958;-41
2021/07/20 07:29:15;;;;;;;14.25;5.62;;;;;;;30.76;47.78;100162.44;1641813;87;20939;-40
2021/07/20 07:31:47;;;;;;;15.80;5.33;;;;;;;30.75;48.66;100160.77;1620807;87;21516;-41
2021/07/20 07:34:15;;;;;;;18.02;4.53;;;;;;;30.84;46.39;100157.59;1639891;85;21173;-42
2021/07/20 07:36:43;;;;;;;11.50;5.00;;;;;;;30.99;45.91;100154.25;1642073;85;21460;-41
2021/07/20 07:39:11;;;;;;;15.48;4.70;;;;;;;31.20;44.73;100153.23;1628806;85;20965;-40
2021/07/20 07:41:39;;;;;;;9.25;3.83;;;;;;;31.19;44.33;100155.55;1614016;85;20978;-42
2021/07/20 07:44:07;;;;;;;14.73;4.80;;;;;;;31.28;45.94;100156.88;1636948;85;21079;-40
2021/07/20 07:46:36;;;;;;;12.53;5.30;;;;;;;31.39;44.54;100156.00;1639322;85;21192;-42
2021/07/20 07:49:03;;;;;;;14.43;4.17;;;;;;;31.54;44.59;100150.77;1645416;85;21033;-41
2021/07/20 07:51:30;;;;;;;8.70;3.98;;;;;;;31.77;43.24;100154.53;1636734;86;21080;-40
2021/07/20 07:54:00;;;;;;;16.52;4.53;;;;;;;31.83;43.27;100159.20;1638229;87;21056;-41
2021/07/20 07:56:30;;;;;;;11.55;4.72;;;;;;;31.72;43.08;100155.05;1651566;85;21470;-40
2021/07/20 07:58:58;;;;;;;13.20;4.70;;;;;;;31.80;42.36;100160.38;1622696;86;21068;-40
2021/07/20 08:01:28;;;;;;;15.90;4.60;;;;;;;31.88;42.11;100154.64;1623381;86;20996;-40
2021/07/20 08:03:55;;;;;;;10.60;4.47;;;;;;;32.06;42.15;100147.67;1625906;86;21574;-40
2021/07/20 08:06:25;;;;;;;11.55;3.60;;;;;;;32.23;42.26;100152.44;1592660;88;21007;-40
2021/07/20 08:08:56;;;;;;;12.50;4.33;;;;;;;32.37;42.63;100150.34;1610540;87;21125;-40
2021/07/20 08:11:23;;;;;;;12.63;4.75;;;;;;;32.17;42.45;100157.14;1628014;85;21864;-42
2021/07/20 08:13:49;;;;;;;11.97;4.25;;;;;;;32.09;43.16;100159.39;1632299;85;21527;-41
2021/07/20 08:16:16;;;;;;;17.62;4.15;;;;;;;32.29;41.53;100160.23;1627583;87;21140;-40
2021/07/20 08:18:43;;;;;;;14.90;4.35;;;;;;;32.56;41.68;100161.58;1624678;85;21511;-40
2021/07/20 08:21:10;;;;;;;14.73;4.80;;;;;;;32.58;39.74;100162.72;1671625;85;20942;-41
2021/07/20 08:23:37;;;;;;;14.23;4.20;;;;;;;32.47;41.60;100151.44;1627922;87;21111;-41
2021/07/20 08:26:14;;;;;;;10.08;4.33;;;;;;;32.66;41.39;100150.09;1629579;87;20978;-42
2021/07/20 08:28:57;;;;;;;14.53;4.05;;;;;;;32.89;42.33;100158.63;1623282;85;21520;-41
2021/07/20 08:31:27;;;;;;;12.93;4.10;;;;;;;33.10;40.88;100154.39;1623817;88;21617;-42
2021/07/20 08:33:56;;;;;;;15.43;4.62;;;;;;;33.23;39.87;100153.26;1629247;87;21000;-40
2021/07/20 08:36:24;;;;;;;19.90;4.90;;;;;;;33.33;39.85;100153.48;1635178;87;21715;-41
2021/07/20 08:38:53;;;;;;;14.23;4.33;;;;;;;33.47;39.82;100152.68;1617480;87;20933;-41
2021/07/20 08:41:42;;;;;;;10.40;4.08;;;;;;;33.71;40.83;100147.98;1645575;85;21044;-41
2021/07/20 08:44:43;;;;;;;17.75;4.55;;;;;;;33.94;41.08;100148.34;1626876;87;21492;-41
2021/07/20 08:47:18;;;;;;;18.52;5.28;;;;;;;33.98;38.65;100148.84;1590045;85;21607;-41
2021/07/20 08:50:22;;;;;;;;;;;;;;;33.68;39.21;100143.84;1629480;85;21220;-42
2021/07/20 08:53:06;;;;;;;12.75;4.90;;;;;;;33.61;39.31;100140.76;1670482;85;20445;-40
2021/07/20 08:55:37;;;;;;;15.60;4.75;;;;;;;33.37;40.01;100144.89;1645051;85;20961;-41
2021/07/20 08:58:20;;;;;;;12.53;4.50;;;;;;;33.29;40.07;100141.47;1669127;85;21040;-40
2021/07/20 09:00:49;;;;;;;16.95;4.28;;;;;;;33.47;40.74;100133.06;1641527;85;20953;-42
2021/07/20 09:03:43;;;;;;;18.15;4.08;;;;;;;33.76;42.95;100135.36;1611358;87;21156;-42
2021/07/20 09:06:18;;;;;;;24.85;4.67;;;;;;;33.98;37.98;100125.53;1634122;87;20989;-41
2021/07/20 09:09:07;;;;;;;13.70;4.30;;;;;;;34.22;40.17;100126.98;1617397;87;20993;-41
2021/07/20 09:11:48;;;;;;;17.40;4.87;;;;;;;34.23;37.80;100126.46;1610364;87;21003;-42
2021/07/20 09:14:41;;;;;;;16.32;4.45;;;;;;;34.07;37.57;100124.87;1668285;85;20984;-42
2021/07/20 09:17:21;;;;;;;12.58;4.58;;;;;;;33.89;37.82;100130.65;1634888;85;21120;-41
2021/07/20 09:20:05;;;;;;;11.25;4.20;;;;;;;33.74;37.57;100127.52;1636371;85;20961;-42
2021/07/20 09:22:58;;;;;;;14.25;4.20;;;;;;;33.88;38.45;100119.09;1643216;85;21102;-41
2021/07/20 09:25:34;;;;;;;13.38;4.35;;;;;;;34.20;38.64;100116.11;1634415;85;21040;-41
2021/07/20 09:28:28;;;;;;;;;;;;;;;34.30;38.15;100118.47;1642912;85;21633;-43
2021/07/20 09:30:55;;;;;;;8.98;4.35;;;;;;;34.17;37.06;100116.50;1632886;87;21120;-41
2021/07/20 09:33:54;;;;;;;13.65;4.22;;;;;;;34.10;39.43;100117.28;1647618;85;21052;-43
2021/07/20 09:36:32;;;;;;;17.02;4.80;;;;;;;34.23;37.58;100110.36;1605877;88;21056;-41
2021/07/20 09:39:35;;;;;;;12.45;4.25;;;;;;;34.11;38.00;100108.73;1615799;87;21047;-40
2021/07/20 09:42:18;;;;;;;17.42;4.40;;;;;;;34.33;38.96;100104.16;1628725;87;21039;-42
2021/07/20 09:45:03;;;;;;;13.60;4.35;;;;;;;34.55;38.08;100102.82;1636806;86;21168;-42
2021/07/20 09:48:24;;;;;;;12.70;4.60;;;;;;;34.70;37.99;100096.50;1634876;86;21019;-41
2021/07/20 09:51:26;;;;;;;18.32;4.55;;;;;;;34.73;36.32;100100.12;1633998;86;20963;-40
2021/07/20 09:54:21;;;;;;;10.80;3.90;;;;;;;34.15;36.73;100101.95;1634243;87;21506;-40
2021/07/20 09:57:06;;;;;;;15.58;4.58;;;;;;;33.73;38.63;100103.55;1630608;87;21622;-41
2021/07/20 09:59:40;;;;;;;13.38;3.83;;;;;;;33.80;39.04;100105.28;1618677;87;21851;-42
2021/07/20 10:02:12;;;;;;;12.78;4.25;;;;;;;34.21;39.13;100097.14;1633781;87;28286;-41
2021/07/20 10:04:55;;;;;;;17.87;4.85;;;;;;;34.48;36.90;100101.88;1610280;88;21008;-41
2021/07/20 10:07:53;;;;;;;14.78;4.50;;;;;;;34.59;37.00;100094.68;1620980;88;21034;-41
2021/07/20 10:10:44;;;;;;;17.27;4.95;;;;;;;34.89;38.80;100090.42;1627090;87;20956;-42
2021/07/20 10:13:23;;;;;;;12.78;5.10;;;;;;;35.22;36.56;100093.82;1650181;85;22756;-42
2021/07/20 10:16:20;;;;;;;15.55;4.17;;;;;;;35.42;37.15;100092.27;1631229;86;21033;-41
2021/07/20 10:19:08;;;;;;;12.35;4.65;;;;;;;35.62;35.05;100086.97;1627819;87;21031;-41
2021/07/20 10:21:37;;;;;;;18.07;4.33;;;;;;;35.66;35.75;100083.69;1639999;87;20968;-43
2021/07/20 10:24:14;;;;;;;18.15;4.45;;;;;;;35.41;36.88;100082.01;1615771;87;21080;-43
2021/07/20 10:27:06;;;;;;;16.90;5.22;;;;;;;35.42;34.80;100076.94;1616191;87;21104;-43
2021/07/20 10:30:02;;;;;;;12.10;4.37;;;;;;;35.40;35.65;100081.70;1636160;87;21022;-42
2021/07/20 10:32:51;;;;;;;23.10;4.83;;;;;;;35.35;36.82;100076.09;1627364;87;20974;-42
2021/07/20 10:35:26;;;;;;;11.18;4.60;;;;;;;35.57;34.71;100075.46;1635341;87;20931;-42
2021/07/20 10:37:55;;;;;;;19.42;4.80;;;;;;;35.94;36.56;100066.55;1639760;86;21540;-42
2021/07/20 10:40:23;;;;;;;15.15;4.87;;;;;;;35.74;34.74;100069.19;1636744;87;21162;-41
2021/07/20 10:43:10;;;;;;;17.05;5.25;;;;;;;35.50;35.55;100065.17;1615454;87;21543;-42
2021/07/20 10:45:37;;;;;;;15.30;5.40;;;;;;;35.51;35.80;100069.05;1635259;87;21623;-40
2021/07/20 10:48:13;;;;;;;16.55;4.47;;;;;;;35.67;35.83;100062.47;1621135;87;21018;-41
2021/07/20 10:50:56;;;;;;;14.87;4.47;;;;;;;35.62;36.85;100065.45;1643721;87;21027;-41
2021/07/20 10:54:01;;;;;;;13.00;4.92;;;;;;;35.61;35.43;100065.95;1643876;87;21172;-40
2021/07/20 10:56:39;;;;;;;16.05;5.12;;;;;;;35.55;36.34;100060.58;1624767;87;21894;-40
2021/07/20 10:59:38;;;;;;;13.38;4.87;;;;;;;35.46;35.49;100067.43;1613560;88;21077;-41
2021/07/20 11:02:34;;;;;;;16.30;4.97;;;;;;;35.45;36.70;100063.62;1613382;89;20977;-41
2021/07/20 11:05:06;;;;;;;19.00;5.37;;;;;;;35.61;35.98;100060.56;1628233;87;20990;-43
2021/07/20 11:07:46;;;;;;;20.43;5.53;;;;;;;35.17;36.41;100060.52;1628987;87;20973;-41
2021/07/20 11:10:33;;;;;;;15.72;5.47;;;;;;;34.92;38.63;100060.46;1621935;87;21001;-43
2021/07/20 11:13:11;;;;;;;19.27;5.17;;;;;;;35.32;36.37;100055.80;1623154;87;21085;-41
2021/07/20 11:15:39;;;;;;;43.55;5.90;;;;;;;35.59;36.93;100049.72;1634237;87;21576;-43
2021/07/20 11:18:09;;;;;;;22.17;5.62;;;;;;;35.41;37.95;100051.08;1634320;87;20978;-41
2021/07/20 11:20:36;;;;;;;22.55;5.20;;;;;;;35.30;37.09;100051.67;1636960;87;21137;-43
2021/07/20 11:23:04;;;;;;;14.50;4.72;;;;;;;35.15;37.87;100049.95;1639491;87;21007;-42
2021/07/20 11:25:32;;;;;;;13.08;5.05;;;;;;;34.96;36.68;100036.19;1634250;87;21009;-40
2021/07/20 11:27:59;;;;;;;13.83;4.87;;;;;;;34.84;38.03;100044.52;1636756;85;21076;-41
2021/07/20 11:30:30;;;;;;;16.17;4.85;;;;;;;34.76;39.93;100045.50;1620493;87;21132;-43
2021/07/20 11:33:05;;;;;;;17.40;5.17;;;;;;;35.05;38.19;100034.19;1620458;88;21143;-43
2021/07/20 11:35:36;;;;;;;14.47;4.87;;;;;;;35.41;39.60;100033.59;1567116;89;21088;-40
2021/07/20 11:38:09;;;;;;;19.45;5.37;;;;;;;35.54;36.84;100026.10;1584449;89;22077;-40
2021/07/20 11:40:58;;;;;;;16.20;5.35;;;;;;;35.34;36.63;100028.19;1561355;89;21037;-40
2021/07/20 11:43:29;;;;;;;15.05;5.12;;;;;;;35.19;36.50;100028.34;1588732;89;21044;-40
2021/07/20 11:46:04;;;;;;;15.40;5.60;;;;;;;35.15;38.07;100025.75;1598207;88;21848;-40
2021/07/20 11:48:42;;;;;;;22.50;5.42;;;;;;;35.37;36.39;100025.12;1610859;87;21568;-40
2021/07/20 11:51:24;;;;;;;15.78;5.05;;;;;;;35.58;40.18;100026.00;1610903;88;20994;-41
2021/07/20 11:54:06;;;;;;;14.25;4.80;;;;;;;35.59;35.11;100026.84;1583114;88;21618;-40
2021/07/20 11:57:14;;;;;;;18.55;5.55;;;;;;;35.45;35.62;100031.34;1644825;85;21495;-41
2021/07/20 12:01:31;;;;;;;19.00;4.95;;;;;;;35.09;37.98;100017.16;1788907;79;22608;-41
2021/07/20 12:04:40;;;;;;;19.23;5.47;;;;;;;35.01;37.47;100017.34;1756623;81;21021;-40
2021/07/20 12:07:34;;;;;;;10.90;4.78;;;;;;;35.08;36.79;100015.50;1757235;81;21139;-42
2021/07/20 12:10:39;;;;;;;17.73;4.50;;;;;;;34.92;36.76;100012.09;1755921;81;20943;-41
2021/07/20 12:13:08;;;;;;;16.45;4.80;;;;;;;34.62;36.94;100002.95;1713658;81;20972;-42
2021/07/20 12:15:37;;;;;;;11.38;4.72;;;;;;;34.63;38.61;100003.27;1725856;81;21559;-41
2021/07/20 12:18:04;;;;;;;17.57;5.28;;;;;;;34.68;37.30;100005.36;1723083;83;21563;-42
2021/07/20 12:20:31;;;;;;;14.83;4.72;;;;;;;34.46;36.35;100007.25;1674157;83;21156;-41
2021/07/20 12:22:58;;;;;;;12.47;5.12;;;;;;;34.04;38.57;100006.66;1699905;83;21023;-41
2021/07/20 12:25:26;;;;;;;18.25;5.25;;;;;;;33.85;38.01;100008.62;1692697;83;21032;-41
2021/07/20 12:27:56;;;;;;;12.18;5.28;;;;;;;33.74;37.29;100004.11;1702060;83;21686;-41
2021/07/20 12:30:25;;;;;;;27.02;5.90;;;;;;;33.65;39.77;100006.08;1670277;82;20990;-42
2021/07/20 12:32:52;;;;;;;17.80;5.67;;;;;;;33.69;39.31;100006.52;1711480;83;21147;-41
2021/07/20 12:35:20;;;;;;;19.48;6.00;;;;;;;33.77;38.56;100006.90;1700296;83;20908;-41
2021/07/20 12:38:08;;;;;;;15.10;5.20;;;;;;;33.92;39.00;100006.33;1708682;83;20980;-41
2021/07/20 12:40:37;;;;;;;19.45;5.35;;;;;;;33.91;37.61;100000.64;1726149;82;21055;-40
2021/07/20 12:43:13;;;;;;;14.45;5.45;;;;;;;33.84;39.42;99998.91;1726575;82;21302;-40
2021/07/20 12:45:45;;;;;;;14.23;4.90;;;;;;;34.04;38.31;100001.80;1697869;83;21173;-42
2021/07/20 12:48:34;;;;;;;16.05;4.67;;;;;;;34.25;37.88;99988.33;1693371;82;21045;-41
2021/07/20 12:51:10;;;;;;;28.75;5.35;;;;;;;34.44;37.01;99990.01;1705994;82;21053;-41
2021/07/20 12:53:41;;;;;;;15.90;5.10;;;;;;;34.54;37.64;99991.03;1680118;84;21056;-42
2021/07/20 12:56:26;;;;;;;10.70;4.22;;;;;;;34.76;37.58;99996.31;1691014;84;21531;-42
2021/07/20 12:58:55;;;;;;;14.05;4.90;;;;;;;35.01;38.39;99983.73;1708235;83;21104;-42
2021/07/20 13:01:22;;;;;;;16.07;5.15;;;;;;;35.20;38.29;99984.30;1659463;85;21023;-41
2021/07/20 13:03:49;;;;;;;15.40;4.90;;;;;;;35.33;36.77;99982.69;1715992;82;21023;-42
2021/07/20 13:06:20;;;;;;;12.73;5.30;;;;;;;35.62;37.66;99979.35;1712233;82;20953;-40
2021/07/20 13:08:49;;;;;;;13.98;5.15;;;;;;;35.75;36.02;99986.61;1735416;82;21730;-40
2021/07/20 13:11:16;;;;;;;13.48;4.83;;;;;;;35.80;35.64;99971.50;1726954;82;21140;-42
2021/07/20 13:13:45;;;;;;;11.10;4.40;;;;;;;36.11;35.26;99969.22;1722121;81;20988;-41
2021/07/20 13:16:19;;;;;;;8.48;4.15;;;;;;;36.30;34.53;99971.59;1727642;81;20964;-41
2021/07/20 13:18:57;;;;;;;12.60;4.70;;;;;;;36.36;35.15;99968.56;1724660;82;21019;-40
2021/07/20 13:21:24;;;;;;;17.15;5.58;;;;;;;36.72;35.40;99958.33;1726791;82;22371;-40
2021/07/20 13:23:54;;;;;;;16.32;4.83;;;;;;;36.93;33.63;99961.27;1728572;82;21509;-41
2021/07/20 13:26:25;;;;;;;10.82;4.80;;;;;;;37.17;33.01;99963.73;1699230;82;21011;-43
2021/07/20 13:28:56;;;;;;;12.40;4.90;;;;;;;37.55;32.59;99955.86;1728274;82;21463;-41
2021/07/20 13:31:35;;;;;;;12.35;4.90;;;;;;;37.76;32.64;99956.80;1718911;82;21616;-43
2021/07/20 13:34:01;;;;;;;15.40;4.53;;;;;;;37.69;33.26;99956.05;1698107;82;21078;-42
2021/07/20 13:36:35;;;;;;;13.70;4.37;;;;;;;37.86;32.00;99954.15;1725556;82;21160;-41
2021/07/20 13:39:05;;;;;;;11.12;4.62;;;;;;;37.98;31.63;99943.48;1730384;82;21039;-43
2021/07/20 13:41:34;;;;;;;7.58;4.33;;;;;;;37.83;30.05;99941.09;1729952;82;21244;-41
2021/07/20 13:44:00;;;;;;;20.95;4.60;;;;;;;37.54;31.21;99940.18;1734398;81;20976;-41
2021/07/20 13:46:26;;;;;;;17.90;4.85;;;;;;;37.56;31.02;99932.69;1710135;82;21050;-41
2021/07/20 13:48:55;;;;;;;8.93;4.65;;;;;;;37.57;31.51;99926.78;1705133;82;21137;-41
2021/07/20 13:51:30;;;;;;;14.40;4.92;;;;;;;37.59;31.04;99920.64;1713173;82;21077;-41
2021/07/20 13:54:01;;;;;;;10.35;4.58;;;;;;;37.37;31.21;99922.33;1726961;82;21056;-43
2021/07/20 13:56:46;;;;;;;9.83;4.55;;;;;;;37.26;31.96;99923.02;1731665;82;21501;-41
2021/07/20 13:59:19;;;;;;;9.68;4.33;;;;;;;37.29;32.47;99918.56;1698040;82;20988;-41
2021/07/20 14:01:55;;;;;;;15.93;5.12;;;;;;;37.02;30.93;99916.84;1733645;82;21079;-42
2021/07/20 14:04:23;;;;;;;10.45;4.55;;;;;;;36.83;34.84;99915.89;1733960;82;20991;-42
2021/07/20 14:06:51;;;;;;;15.55;4.60;;;;;;;37.08;34.75;99915.16;1734111;82;21019;-41
2021/07/20 14:09:17;;;;;;;10.23;4.72;;;;;;;37.45;33.62;99911.27;1734296;82;20964;-41
2021/07/20 14:11:44;;;;;;;21.57;4.65;;;;;;;37.67;31.62;99910.91;1705551;82;20987;-41
2021/07/20 14:14:16;;;;;;;7.28;4.00;;;;;;;37.97;30.34;99911.59;1712384;82;21118;-42
2021/07/20 14:16:43;;;;;;;8.60;4.12;;;;;;;38.18;30.58;99906.30;1735189;82;20964;-41
2021/07/20 14:19:10;;;;;;;10.45;4.70;;;;;;;38.18;30.83;99911.70;1709702;82;21015;-41
2021/07/20 14:21:39;;;;;;;11.08;4.72;;;;;;;38.44;31.59;99912.47;1725586;82;20936;-41
2021/07/20 14:24:10;;;;;;;12.75;4.40;;;;;;;38.38;31.03;99914.16;1726945;82;21031;-41
2021/07/20 14:26:48;;;;;;;14.18;4.35;;;;;;;38.32;29.74;99906.97;1732952;82;21112;-41
2021/07/20 14:29:25;;;;;;;23.57;5.03;;;;;;;38.28;30.34;99912.53;1734858;82;20936;-40
2021/07/20 14:31:59;;;;;;;6.92;3.83;;;;;;;37.92;30.47;99914.11;1714728;82;20975;-40
2021/07/20 14:34:48;;;;;;;13.00;4.22;;;;;;;37.43;31.36;99922.80;1727237;82;21621;-40
2021/07/20 14:37:49;;;;;;;11.78;4.03;;;;;;;37.21;32.35;99926.39;1690870;82;21658;-41
2021/07/20 14:40:27;;;;;;;6.87;4.00;;;;;;;36.93;31.99;99925.67;1724426;82;21713;-41
2021/07/20 14:43:06;;;;;;;15.95;4.20;;;;;;;36.85;34.74;99919.20;1735333;82;21027;-41
2021/07/20 14:45:35;;;;;;;15.48;4.40;;;;;;;37.06;33.46;99909.16;1744104;82;20956;-41
2021/07/20 14:48:07;;;;;;;12.25;5.00;;;;;;;37.26;31.96;99904.14;1734899;82;21576;-41
2021/07/20 14:50:39;;;;;;;14.35;5.37;;;;;;;37.47;31.71;99905.12;1720182;82;20900;-41
2021/07/20 14:53:13;;;;;;;14.73;4.60;;;;;;;37.61;31.70;99902.36;1721521;82;21033;-41
2021/07/20 14:55:46;;;;;;;15.70;9.30;;;;;;;37.73;32.43;99897.88;1718098;83;20955;-41
2021/07/20 14:58:22;;;;;;;21.35;9.55;;;;;;;37.73;31.44;99887.08;1737643;80;20960;-41
2021/07/20 15:00:59;;;;;;;27.62;13.22;;;;;;;37.59;30.81;99880.98;1724927;81;20944;-41
2021/07/20 15:03:42;;;;;;;19.50;6.87;;;;;;;37.38;31.17;99876.77;1757010;81;20979;-41